Time;durP1;ratioP1;P1;durP2;ratioP2;P2;SDS_P1;SDS_P2;PMS_P1;PMS_P2;Temp;Humidity;BMP_temperature;BMP_pressure;BME280_temperature;BME280_humidity;BME280_pressure;Samples;Min_cycle;Max_cycle;Signal;HPM_P1;HPM_P2
2021/03/19 00:01:02;;;;;;;9.07;8.13;;;5.2;99.9;;;;;;;;;
2021/03/19 00:02:02;;;;;;;11.27;9.13;;;5.2;99.9;;;;;;;;;
2021/03/19 00:03:02;;;;;;;11.4;8.47;;;5.1;99.9;;;;;;;;;
2021/03/19 00:03:16;;;;;;;11.4;8.47;;;5.1;99.9;;;;;;;;;
2021/03/19 00:04:02;;;;;;;10.67;9.07;;;5.1;99.9;;;;;;;;;
2021/03/19 00:04:13;;;;;;;10.67;9.07;;;5.1;99.9;;;;;;;;;
2021/03/19 00:05:02;;;;;;;11;8.97;;;5.1;99.9;;;;;;;;;
2021/03/19 00:05:14;;;;;;;11;8.97;;;5.1;99.9;;;;;;;;;
2021/03/19 00:05:30;;;;;;;14.87;9.27;;;5.1;99.9;;;;;;;;;
2021/03/19 00:06:02;;;;;;;14.87;9.27;;;5.1;99.9;;;;;;;;;
2021/03/19 00:06:16;;;;;;;14.87;9.27;;;5.1;99.9;;;;;;;;;
2021/03/19 00:06:26;;;;;;;10.43;9.33;;;5.1;99.9;;;;;;;;;
2021/03/19 00:07:02;;;;;;;10.43;9.33;;;5.1;99.9;;;;;;;;;
2021/03/19 00:07:17;;;;;;;10.43;9.33;;;5.1;99.9;;;;;;;;;
2021/03/19 00:07:27;;;;;;;11.33;10.07;;;5.1;99.9;;;;;;;;;
2021/03/19 00:07:43;;;;;;;11.33;10.07;;;5.1;99.9;;;;;;;;;
2021/03/19 00:08:02;;;;;;;11.33;10.07;;;5.1;99.9;;;;;;;;;
2021/03/19 00:08:13;;;;;;;11.33;10.07;;;5.1;99.9;;;;;;;;;
2021/03/19 00:08:29;;;;;;;12.5;9.7;;;5.2;99.9;;;;;;;;;
2021/03/19 00:08:39;;;;;;;12.5;9.7;;;5.2;99.9;;;;;;;;;
2021/03/19 00:09:02;;;;;;;12.5;9.7;;;5.2;99.9;;;;;;;;;
2021/03/19 00:09:15;;;;;;;12.5;9.7;;;5.2;99.9;;;;;;;;;
2021/03/19 00:09:30;;;;;;;13.3;9.77;;;5.2;99.9;;;;;;;;;
2021/03/19 00:09:51;;;;;;;13.3;9.77;;;5.2;99.9;;;;;;;;;
2021/03/19 00:09:56;;;;;;;13.3;9.77;;;5.2;99.9;;;;;;;;;
2021/03/19 00:10:02;;;;;;;13.3;9.77;;;5.2;99.9;;;;;;;;;
2021/03/19 00:10:18;;;;;;;13.3;9.77;;;5.2;99.9;;;;;;;;;
2021/03/19 00:10:27;;;;;;;11.03;9.77;;;5.2;99.9;;;;;;;;;
2021/03/19 00:10:42;;;;;;;11.03;9.77;;;5.2;99.9;;;;;;;;;
2021/03/19 00:10:52;;;;;;;11.03;9.77;;;5.2;99.9;;;;;;;;;
2021/03/19 00:11:02;;;;;;;11.03;9.77;;;5.2;99.9;;;;;;;;;
2021/03/19 00:11:18;;;;;;;11.03;9.77;;;5.2;99.9;;;;;;;;;
2021/03/19 00:11:28;;;;;;;11.23;9.33;;;5.1;99.9;;;;;;;;;
2021/03/19 00:11:43;;;;;;;11.23;9.33;;;5.1;99.9;;;;;;;;;
2021/03/19 00:12:03;;;;;;;11.23;9.33;;;5.1;99.9;;;;;;;;;
2021/03/19 00:12:04;;;;;;;11.23;9.33;;;5.1;99.9;;;;;;;;;
2021/03/19 00:12:09;;;;;;;11.23;9.33;;;5.1;99.9;;;;;;;;;
2021/03/19 00:12:14;;;;;;;11.23;9.33;;;5.1;99.9;;;;;;;;;
2021/03/19 00:12:30;;;;;;;13.87;9.93;;;5.1;99.9;;;;;;;;;
2021/03/19 00:12:40;;;;;;;13.87;9.93;;;5.1;99.9;;;;;;;;;
2021/03/19 00:12:55;;;;;;;13.87;9.93;;;5.1;99.9;;;;;;;;;
2021/03/19 00:13:02;;;;;;;13.87;9.93;;;5.1;99.9;;;;;;;;;
2021/03/19 00:13:07;;;;;;;13.87;9.93;;;5.1;99.9;;;;;;;;;
2021/03/19 00:13:15;;;;;;;13.87;9.93;;;5.1;99.9;;;;;;;;;
2021/03/19 00:13:31;;;;;;;10.37;9.37;;;5.1;99.9;;;;;;;;;
2021/03/19 00:13:41;;;;;;;10.37;9.37;;;5.1;99.9;;;;;;;;;
2021/03/19 00:13:56;;;;;;;10.37;9.37;;;5.1;99.9;;;;;;;;;
2021/03/19 00:14:02;;;;;;;10.37;9.37;;;5.1;99.9;;;;;;;;;
2021/03/19 00:14:17;;;;;;;10.37;9.37;;;5.1;99.9;;;;;;;;;
2021/03/19 00:14:17;;;;;;;10.37;9.37;;;5.1;99.9;;;;;;;;;
2021/03/19 00:14:27;;;;;;;11.7;10.2;;;5.1;99.9;;;;;;;;;
2021/03/19 00:14:43;;;;;;;11.7;10.2;;;5.1;99.9;;;;;;;;;
2021/03/19 00:14:53;;;;;;;11.7;10.2;;;5.1;99.9;;;;;;;;;
2021/03/19 00:15:02;;;;;;;11.7;10.2;;;5.1;99.9;;;;;;;;;
2021/03/19 00:15:08;;;;;;;11.7;10.2;;;5.1;99.9;;;;;;;;;
2021/03/19 00:15:13;;;;;;;11.7;10.2;;;5.1;99.9;;;;;;;;;
2021/03/19 00:15:29;;;;;;;13.47;9.4;;;5;99.9;;;;;;;;;
2021/03/19 00:15:44;;;;;;;13.47;9.4;;;5;99.9;;;;;;;;;
2021/03/19 00:15:54;;;;;;;13.47;9.4;;;5;99.9;;;;;;;;;
2021/03/19 00:16:02;;;;;;;13.47;9.4;;;5;99.9;;;;;;;;;
2021/03/19 00:16:10;;;;;;;13.47;9.4;;;5;99.9;;;;;;;;;
2021/03/19 00:16:15;;;;;;;13.47;9.4;;;5;99.9;;;;;;;;;
2021/03/19 00:16:30;;;;;;;10.73;9.43;;;5;99.9;;;;;;;;;
2021/03/19 00:16:40;;;;;;;10.73;9.43;;;5;99.9;;;;;;;;;
2021/03/19 00:16:56;;;;;;;10.73;9.43;;;5;99.9;;;;;;;;;
2021/03/19 00:17:02;;;;;;;10.73;9.43;;;5;99.9;;;;;;;;;
2021/03/19 00:17:06;;;;;;;10.73;9.43;;;5;99.9;;;;;;;;;
2021/03/19 00:17:16;;;;;;;10.73;9.43;;;5;99.9;;;;;;;;;
2021/03/19 00:17:26;;;;;;;13.27;9.87;;;5;99.9;;;;;;;;;
2021/03/19 00:17:42;;;;;;;13.27;9.87;;;5;99.9;;;;;;;;;
2021/03/19 00:17:57;;;;;;;13.27;9.87;;;5;99.9;;;;;;;;;
2021/03/19 00:18:02;;;;;;;13.27;9.87;;;5;99.9;;;;;;;;;
2021/03/19 00:18:07;;;;;;;13.27;9.87;;;5;99.9;;;;;;;;;
2021/03/19 00:18:18;;;;;;;13.27;9.87;;;5;99.9;;;;;;;;;
2021/03/19 00:18:28;;;;;;;12.2;10.1;;;5.1;99.9;;;;;;;;;
2021/03/19 00:18:44;;;;;;;12.2;10.1;;;5.1;99.9;;;;;;;;;
2021/03/19 00:18:53;;;;;;;12.2;10.1;;;5.1;99.9;;;;;;;;;
2021/03/19 00:19:01;;;;;;;12.2;10.1;;;5.1;99.9;;;;;;;;;
2021/03/19 00:19:09;;;;;;;12.2;10.1;;;5.1;99.9;;;;;;;;;
2021/03/19 00:19:14;;;;;;;12.2;10.1;;;5.1;99.9;;;;;;;;;
2021/03/19 00:19:29;;;;;;;11.7;9.93;;;5.1;99.9;;;;;;;;;
2021/03/19 00:19:39;;;;;;;11.7;9.93;;;5.1;99.9;;;;;;;;;
2021/03/19 00:19:55;;;;;;;11.7;9.93;;;5.1;99.9;;;;;;;;;
2021/03/19 00:20:02;;;;;;;11.7;9.93;;;5.1;99.9;;;;;;;;;
2021/03/19 00:20:10;;;;;;;11.7;9.93;;;5.1;99.9;;;;;;;;;
2021/03/19 00:20:15;;;;;;;11.7;9.93;;;5.1;99.9;;;;;;;;;
2021/03/19 00:20:36;;;;;;;14.37;10.03;;;5.1;99.9;;;;;;;;;
2021/03/19 00:20:41;;;;;;;14.37;10.03;;;5.1;99.9;;;;;;;;;
2021/03/19 00:20:56;;;;;;;14.37;10.03;;;5.1;99.9;;;;;;;;;
2021/03/19 00:21:02;;;;;;;14.37;10.03;;;5.1;99.9;;;;;;;;;
2021/03/19 00:21:07;;;;;;;14.37;10.03;;;5.1;99.9;;;;;;;;;
2021/03/19 00:21:17;;;;;;;14.37;10.03;;;5.1;99.9;;;;;;;;;
2021/03/19 00:21:27;;;;;;;12.1;10.5;;;5.2;99.9;;;;;;;;;
2021/03/19 00:21:42;;;;;;;12.1;10.5;;;5.2;99.9;;;;;;;;;
2021/03/19 00:21:53;;;;;;;12.1;10.5;;;5.2;99.9;;;;;;;;;
2021/03/19 00:22:01;;;;;;;12.1;10.5;;;5.2;99.9;;;;;;;;;
2021/03/19 00:22:08;;;;;;;12.1;10.5;;;5.2;99.9;;;;;;;;;
2021/03/19 00:22:13;;;;;;;12.1;10.5;;;5.2;99.9;;;;;;;;;
2021/03/19 00:22:28;;;;;;;12.37;10.2;;;5.2;99.9;;;;;;;;;
2021/03/19 00:22:49;;;;;;;12.37;10.2;;;5.2;99.9;;;;;;;;;
2021/03/19 00:22:54;;;;;;;12.37;10.2;;;5.2;99.9;;;;;;;;;
2021/03/19 00:23:02;;;;;;;12.37;10.2;;;5.2;99.9;;;;;;;;;
2021/03/19 00:23:09;;;;;;;12.37;10.2;;;5.2;99.9;;;;;;;;;
2021/03/19 00:23:15;;;;;;;12.37;10.2;;;5.2;99.9;;;;;;;;;
2021/03/19 00:23:30;;;;;;;12.7;9.73;;;5.2;99.9;;;;;;;;;
2021/03/19 00:23:40;;;;;;;12.7;9.73;;;5.2;99.9;;;;;;;;;
2021/03/19 00:23:55;;;;;;;12.7;9.73;;;5.2;99.9;;;;;;;;;
2021/03/19 00:24:02;;;;;;;12.7;9.73;;;5.2;99.9;;;;;;;;;
2021/03/19 00:24:06;;;;;;;12.7;9.73;;;5.2;99.9;;;;;;;;;
2021/03/19 00:24:16;;;;;;;12.7;9.73;;;5.2;99.9;;;;;;;;;
2021/03/19 00:24:26;;;;;;;12.33;10.07;;;5.2;99.9;;;;;;;;;
2021/03/19 00:24:41;;;;;;;12.33;10.07;;;5.2;99.9;;;;;;;;;
2021/03/19 00:25:02;;;;;;;12.33;10.07;;;5.2;99.9;;;;;;;;;
2021/03/19 00:25:02;;;;;;;12.33;10.07;;;5.2;99.9;;;;;;;;;
2021/03/19 00:25:07;;;;;;;12.33;10.07;;;5.2;99.9;;;;;;;;;
2021/03/19 00:25:13;;;;;;;12.33;10.07;;;5.2;99.9;;;;;;;;;
2021/03/19 00:25:28;;;;;;;15.63;10.8;;;5.2;99.9;;;;;;;;;
2021/03/19 00:25:43;;;;;;;15.63;10.8;;;5.2;99.9;;;;;;;;;
2021/03/19 00:25:53;;;;;;;15.63;10.8;;;5.2;99.9;;;;;;;;;
2021/03/19 00:26:02;;;;;;;15.63;10.8;;;5.2;99.9;;;;;;;;;
2021/03/19 00:26:09;;;;;;;15.63;10.8;;;5.2;99.9;;;;;;;;;
2021/03/19 00:26:14;;;;;;;15.63;10.8;;;5.2;99.9;;;;;;;;;
2021/03/19 00:26:29;;;;;;;13.7;10.07;;;5.2;99.9;;;;;;;;;
2021/03/19 00:26:39;;;;;;;13.7;10.07;;;5.2;99.9;;;;;;;;;
2021/03/19 00:26:55;;;;;;;13.7;10.07;;;5.2;99.9;;;;;;;;;
2021/03/19 00:27:01;;;;;;;13.7;10.07;;;5.2;99.9;;;;;;;;;
2021/03/19 00:27:15;;;;;;;13.7;10.07;;;5.2;99.9;;;;;;;;;
2021/03/19 00:27:15;;;;;;;13.7;10.07;;;5.2;99.9;;;;;;;;;
2021/03/19 00:27:25;;;;;;;11.33;9.07;;;5.1;99.9;;;;;;;;;
2021/03/19 00:27:41;;;;;;;11.33;9.07;;;5.1;99.9;;;;;;;;;
2021/03/19 00:27:56;;;;;;;11.33;9.07;;;5.1;99.9;;;;;;;;;
2021/03/19 00:28:02;;;;;;;11.33;9.07;;;5.1;99.9;;;;;;;;;
2021/03/19 00:28:06;;;;;;;11.33;9.07;;;5.1;99.9;;;;;;;;;
2021/03/19 00:28:17;;;;;;;11.33;9.07;;;5.1;99.9;;;;;;;;;
2021/03/19 00:28:27;;;;;;;11.9;9.8;;;5.1;99.9;;;;;;;;;
2021/03/19 00:28:42;;;;;;;11.9;9.8;;;5.1;99.9;;;;;;;;;
2021/03/19 00:28:52;;;;;;;11.9;9.8;;;5.1;99.9;;;;;;;;;
2021/03/19 00:29:01;;;;;;;11.9;9.8;;;5.1;99.9;;;;;;;;;
2021/03/19 00:29:09;;;;;;;11.9;9.8;;;5.1;99.9;;;;;;;;;
2021/03/19 00:29:13;;;;;;;11.9;9.8;;;5.1;99.9;;;;;;;;;
2021/03/19 00:29:28;;;;;;;12.03;9.7;;;5.1;99.9;;;;;;;;;
2021/03/19 00:29:39;;;;;;;12.03;9.7;;;5.1;99.9;;;;;;;;;
2021/03/19 00:29:54;;;;;;;12.03;9.7;;;5.1;99.9;;;;;;;;;
2021/03/19 00:30:02;;;;;;;12.03;9.7;;;5.1;99.9;;;;;;;;;
2021/03/19 00:30:09;;;;;;;12.03;9.7;;;5.1;99.9;;;;;;;;;
2021/03/19 00:30:14;;;;;;;12.03;9.7;;;5.1;99.9;;;;;;;;;
2021/03/19 00:30:30;;;;;;;11.53;9.97;;;5;99.9;;;;;;;;;
2021/03/19 00:30:40;;;;;;;11.53;9.97;;;5;99.9;;;;;;;;;
2021/03/19 00:30:55;;;;;;;11.53;9.97;;;5;99.9;;;;;;;;;
2021/03/19 00:31:02;;;;;;;11.53;9.97;;;5;99.9;;;;;;;;;
2021/03/19 00:31:06;;;;;;;11.53;9.97;;;5;99.9;;;;;;;;;
2021/03/19 00:31:16;;;;;;;11.53;9.97;;;5;99.9;;;;;;;;;
2021/03/19 00:31:26;;;;;;;13.2;10.37;;;5;99.9;;;;;;;;;
2021/03/19 00:31:41;;;;;;;13.2;10.37;;;5;99.9;;;;;;;;;
2021/03/19 00:31:52;;;;;;;13.2;10.37;;;5;99.9;;;;;;;;;
2021/03/19 00:32:01;;;;;;;13.2;10.37;;;5;99.9;;;;;;;;;
2021/03/19 00:32:07;;;;;;;13.2;10.37;;;5;99.9;;;;;;;;;
2021/03/19 00:32:17;;;;;;;13.2;10.37;;;5;99.9;;;;;;;;;
2021/03/19 00:32:27;;;;;;;13.07;9.7;;;5;99.9;;;;;;;;;
2021/03/19 00:32:43;;;;;;;13.07;9.7;;;5;99.9;;;;;;;;;
2021/03/19 00:32:53;;;;;;;13.07;9.7;;;5;99.9;;;;;;;;;
2021/03/19 00:33:02;;;;;;;13.07;9.7;;;5;99.9;;;;;;;;;
2021/03/19 00:33:09;;;;;;;13.07;9.7;;;5;99.9;;;;;;;;;
2021/03/19 00:33:14;;;;;;;13.07;9.7;;;5;99.9;;;;;;;;;
2021/03/19 00:33:29;;;;;;;12.3;10.03;;;5;99.9;;;;;;;;;
2021/03/19 00:33:39;;;;;;;12.3;10.03;;;5;99.9;;;;;;;;;
2021/03/19 00:33:54;;;;;;;12.3;10.03;;;5;99.9;;;;;;;;;
2021/03/19 00:34:01;;;;;;;12.3;10.03;;;5;99.9;;;;;;;;;
2021/03/19 00:34:05;;;;;;;12.3;10.03;;;5;99.9;;;;;;;;;
2021/03/19 00:34:15;;;;;;;12.3;10.03;;;5;99.9;;;;;;;;;
2021/03/19 00:34:30;;;;;;;15.1;11.2;;;5.1;99.9;;;;;;;;;
2021/03/19 00:34:41;;;;;;;15.1;11.2;;;5.1;99.9;;;;;;;;;
2021/03/19 00:34:56;;;;;;;15.1;11.2;;;5.1;99.9;;;;;;;;;
2021/03/19 00:35:02;;;;;;;15.1;11.2;;;5.1;99.9;;;;;;;;;
2021/03/19 00:35:06;;;;;;;15.1;11.2;;;5.1;99.9;;;;;;;;;
2021/03/19 00:35:16;;;;;;;15.1;11.2;;;5.1;99.9;;;;;;;;;
2021/03/19 00:35:27;;;;;;;15.1;11.2;;;5.1;99.9;;;;;;;;;
2021/03/19 00:35:42;;;;;;;13.93;10;;;5;99.9;;;;;;;;;
2021/03/19 00:35:52;;;;;;;13.93;10;;;5;99.9;;;;;;;;;
2021/03/19 00:36:02;;;;;;;13.93;10;;;5;99.9;;;;;;;;;
2021/03/19 00:36:08;;;;;;;13.93;10;;;5;99.9;;;;;;;;;
2021/03/19 00:36:13;;;;;;;13.93;10;;;5;99.9;;;;;;;;;
2021/03/19 00:36:28;;;;;;;12.67;10;;;5;99.9;;;;;;;;;
2021/03/19 00:36:43;;;;;;;12.67;10;;;5;99.9;;;;;;;;;
2021/03/19 00:36:54;;;;;;;12.67;10;;;5;99.9;;;;;;;;;
2021/03/19 00:37:01;;;;;;;12.67;10;;;5;99.9;;;;;;;;;
2021/03/19 00:37:09;;;;;;;12.67;10;;;5;99.9;;;;;;;;;
2021/03/19 00:37:14;;;;;;;12.67;10;;;5;99.9;;;;;;;;;
2021/03/19 00:37:30;;;;;;;11.67;10.4;;;4.9;99.9;;;;;;;;;
2021/03/19 00:37:40;;;;;;;11.67;10.4;;;4.9;99.9;;;;;;;;;
2021/03/19 00:37:55;;;;;;;11.67;10.4;;;4.9;99.9;;;;;;;;;
2021/03/19 00:38:02;;;;;;;11.67;10.4;;;4.9;99.9;;;;;;;;;
2021/03/19 00:38:05;;;;;;;11.67;10.4;;;4.9;99.9;;;;;;;;;
2021/03/19 00:38:16;;;;;;;11.67;10.4;;;4.9;99.9;;;;;;;;;
2021/03/19 00:38:26;;;;;;;11.67;10.4;;;4.9;99.9;;;;;;;;;
2021/03/19 00:38:41;;;;;;;12.83;10.6;;;4.9;99.9;;;;;;;;;
2021/03/19 00:38:57;;;;;;;12.83;10.6;;;4.9;99.9;;;;;;;;;
2021/03/19 00:39:01;;;;;;;12.83;10.6;;;4.9;99.9;;;;;;;;;
2021/03/19 00:39:07;;;;;;;12.83;10.6;;;4.9;99.9;;;;;;;;;
2021/03/19 00:39:12;;;;;;;12.83;10.6;;;4.9;99.9;;;;;;;;;
2021/03/19 00:39:27;;;;;;;12.83;10.6;;;4.9;99.9;;;;;;;;;
2021/03/19 00:39:43;;;;;;;12.07;10.3;;;4.9;99.9;;;;;;;;;
2021/03/19 00:39:53;;;;;;;12.07;10.3;;;4.9;99.9;;;;;;;;;
2021/03/19 00:40:02;;;;;;;12.07;10.3;;;4.9;99.9;;;;;;;;;
2021/03/19 00:40:08;;;;;;;12.07;10.3;;;4.9;99.9;;;;;;;;;
2021/03/19 00:40:13;;;;;;;12.07;10.3;;;4.9;99.9;;;;;;;;;
2021/03/19 00:40:29;;;;;;;13.03;10.7;;;4.8;99.9;;;;;;;;;
2021/03/19 00:40:39;;;;;;;13.03;10.7;;;4.8;99.9;;;;;;;;;
2021/03/19 00:40:54;;;;;;;13.03;10.7;;;4.8;99.9;;;;;;;;;
2021/03/19 00:41:02;;;;;;;13.03;10.7;;;4.8;99.9;;;;;;;;;
2021/03/19 00:41:10;;;;;;;13.03;10.7;;;4.8;99.9;;;;;;;;;
2021/03/19 00:41:15;;;;;;;13.03;10.7;;;4.8;99.9;;;;;;;;;
2021/03/19 00:41:25;;;;;;;13.03;10.7;;;4.8;99.9;;;;;;;;;
2021/03/19 00:41:40;;;;;;;11.8;10.17;;;4.8;99.9;;;;;;;;;
2021/03/19 00:41:56;;;;;;;11.8;10.17;;;4.8;99.9;;;;;;;;;
2021/03/19 00:42:02;;;;;;;11.8;10.17;;;4.8;99.9;;;;;;;;;
2021/03/19 00:42:06;;;;;;;11.8;10.17;;;4.8;99.9;;;;;;;;;
2021/03/19 00:42:16;;;;;;;11.8;10.17;;;4.8;99.9;;;;;;;;;
2021/03/19 00:42:27;;;;;;;11.8;10.17;;;4.8;99.9;;;;;;;;;
2021/03/19 00:42:42;;;;;;;14.83;10.57;;;4.8;99.9;;;;;;;;;
2021/03/19 00:42:52;;;;;;;14.83;10.57;;;4.8;99.9;;;;;;;;;
2021/03/19 00:43:02;;;;;;;14.83;10.57;;;4.8;99.9;;;;;;;;;
2021/03/19 00:43:07;;;;;;;14.83;10.57;;;4.8;99.9;;;;;;;;;
2021/03/19 00:43:13;;;;;;;14.83;10.57;;;4.8;99.9;;;;;;;;;
2021/03/19 00:43:29;;;;;;;14.83;10.57;;;4.8;99.9;;;;;;;;;
2021/03/19 00:43:38;;;;;;;12;10;;;4.8;99.9;;;;;;;;;
2021/03/19 00:43:54;;;;;;;12;10;;;4.8;99.9;;;;;;;;;
2021/03/19 00:44:01;;;;;;;12;10;;;4.8;99.9;;;;;;;;;
2021/03/19 00:44:09;;;;;;;12;10;;;4.8;99.9;;;;;;;;;
2021/03/19 00:44:14;;;;;;;12;10;;;4.8;99.9;;;;;;;;;
2021/03/19 00:44:29;;;;;;;12;10;;;4.8;99.9;;;;;;;;;
2021/03/19 00:44:40;;;;;;;13.87;10.03;;;4.8;99.9;;;;;;;;;
2021/03/19 00:44:55;;;;;;;13.87;10.03;;;4.8;99.9;;;;;;;;;
2021/03/19 00:45:02;;;;;;;13.87;10.03;;;4.8;99.9;;;;;;;;;
2021/03/19 00:45:05;;;;;;;13.87;10.03;;;4.8;99.9;;;;;;;;;
2021/03/19 00:45:16;;;;;;;13.87;10.03;;;4.8;99.9;;;;;;;;;
2021/03/19 00:45:26;;;;;;;13.87;10.03;;;4.8;99.9;;;;;;;;;
2021/03/19 00:45:41;;;;;;;13.13;10.47;;;4.8;99.9;;;;;;;;;
2021/03/19 00:45:51;;;;;;;13.13;10.47;;;4.8;99.9;;;;;;;;;
2021/03/19 00:46:02;;;;;;;13.13;10.47;;;4.8;99.9;;;;;;;;;
2021/03/19 00:46:07;;;;;;;13.13;10.47;;;4.8;99.9;;;;;;;;;
2021/03/19 00:46:17;;;;;;;13.13;10.47;;;4.8;99.9;;;;;;;;;
2021/03/19 00:46:27;;;;;;;13.13;10.47;;;4.8;99.9;;;;;;;;;
2021/03/19 00:46:42;;;;;;;12.2;10.23;;;4.7;99.9;;;;;;;;;
2021/03/19 00:46:53;;;;;;;12.2;10.23;;;4.7;99.9;;;;;;;;;
2021/03/19 00:47:02;;;;;;;12.2;10.23;;;4.7;99.9;;;;;;;;;
2021/03/19 00:47:08;;;;;;;12.2;10.23;;;4.7;99.9;;;;;;;;;
2021/03/19 00:47:13;;;;;;;12.2;10.23;;;4.7;99.9;;;;;;;;;
2021/03/19 00:47:29;;;;;;;12.2;10.23;;;4.7;99.9;;;;;;;;;
2021/03/19 00:47:39;;;;;;;12.7;9.97;;;4.7;99.9;;;;;;;;;
2021/03/19 00:47:54;;;;;;;12.7;9.97;;;4.7;99.9;;;;;;;;;
2021/03/19 00:48:02;;;;;;;12.7;9.97;;;4.7;99.9;;;;;;;;;
2021/03/19 00:48:04;;;;;;;12.7;9.97;;;4.7;99.9;;;;;;;;;
2021/03/19 00:48:15;;;;;;;12.7;9.97;;;4.7;99.9;;;;;;;;;
2021/03/19 00:48:30;;;;;;;12.7;9.97;;;4.7;99.9;;;;;;;;;
2021/03/19 00:48:40;;;;;;;13.67;11.3;;;4.7;99.9;;;;;;;;;
2021/03/19 00:48:56;;;;;;;13.67;11.3;;;4.7;99.9;;;;;;;;;
2021/03/19 00:49:01;;;;;;;13.67;11.3;;;4.7;99.9;;;;;;;;;
2021/03/19 00:49:06;;;;;;;13.67;11.3;;;4.7;99.9;;;;;;;;;
2021/03/19 00:49:16;;;;;;;13.67;11.3;;;4.7;99.9;;;;;;;;;
2021/03/19 00:49:26;;;;;;;13.67;11.3;;;4.7;99.9;;;;;;;;;
2021/03/19 00:49:42;;;;;;;11.7;10.17;;;4.6;99.9;;;;;;;;;
2021/03/19 00:49:52;;;;;;;11.7;10.17;;;4.6;99.9;;;;;;;;;
2021/03/19 00:50:02;;;;;;;11.7;10.17;;;4.6;99.9;;;;;;;;;
2021/03/19 00:50:07;;;;;;;11.7;10.17;;;4.6;99.9;;;;;;;;;
2021/03/19 00:50:18;;;;;;;11.7;10.17;;;4.6;99.9;;;;;;;;;
2021/03/19 00:50:28;;;;;;;11.7;10.17;;;4.6;99.9;;;;;;;;;
2021/03/19 00:50:43;;;;;;;13.9;11.03;;;4.7;99.9;;;;;;;;;
2021/03/19 00:50:55;;;;;;;13.9;11.03;;;4.7;99.9;;;;;;;;;
2021/03/19 00:51:02;;;;;;;13.9;11.03;;;4.7;99.9;;;;;;;;;
2021/03/19 00:51:09;;;;;;;13.9;11.03;;;4.7;99.9;;;;;;;;;
2021/03/19 00:51:14;;;;;;;13.9;11.03;;;4.7;99.9;;;;;;;;;
2021/03/19 00:51:29;;;;;;;13.9;11.03;;;4.7;99.9;;;;;;;;;
2021/03/19 00:51:39;;;;;;;12.63;10.43;;;4.7;99.9;;;;;;;;;
2021/03/19 00:51:55;;;;;;;12.63;10.43;;;4.7;99.9;;;;;;;;;
2021/03/19 00:52:02;;;;;;;12.63;10.43;;;4.7;99.9;;;;;;;;;
2021/03/19 00:52:05;;;;;;;12.63;10.43;;;4.7;99.9;;;;;;;;;
2021/03/19 00:52:15;;;;;;;12.63;10.43;;;4.7;99.9;;;;;;;;;
2021/03/19 00:52:31;;;;;;;12.63;10.43;;;4.7;99.9;;;;;;;;;
2021/03/19 00:52:41;;;;;;;14.27;10.67;;;4.7;99.9;;;;;;;;;
2021/03/19 00:52:56;;;;;;;14.27;10.67;;;4.7;99.9;;;;;;;;;
2021/03/19 00:53:02;;;;;;;14.27;10.67;;;4.7;99.9;;;;;;;;;
2021/03/19 00:53:07;;;;;;;14.27;10.67;;;4.7;99.9;;;;;;;;;
2021/03/19 00:53:17;;;;;;;14.27;10.67;;;4.7;99.9;;;;;;;;;
2021/03/19 00:53:27;;;;;;;14.27;10.67;;;4.7;99.9;;;;;;;;;
2021/03/19 00:53:42;;;;;;;13.97;10.23;;;4.7;99.9;;;;;;;;;
2021/03/19 00:53:53;;;;;;;13.97;10.23;;;4.7;99.9;;;;;;;;;
2021/03/19 00:54:01;;;;;;;13.97;10.23;;;4.7;99.9;;;;;;;;;
2021/03/19 00:54:08;;;;;;;13.97;10.23;;;4.7;99.9;;;;;;;;;
2021/03/19 00:54:13;;;;;;;13.97;10.23;;;4.7;99.9;;;;;;;;;
2021/03/19 00:54:28;;;;;;;13.97;10.23;;;4.7;99.9;;;;;;;;;
2021/03/19 00:54:44;;;;;;;13.47;10.33;;;4.6;99.9;;;;;;;;;
2021/03/19 00:54:54;;;;;;;13.47;10.33;;;4.6;99.9;;;;;;;;;
2021/03/19 00:55:02;;;;;;;13.47;10.33;;;4.6;99.9;;;;;;;;;
2021/03/19 00:55:09;;;;;;;13.47;10.33;;;4.6;99.9;;;;;;;;;
2021/03/19 00:55:15;;;;;;;13.47;10.33;;;4.6;99.9;;;;;;;;;
2021/03/19 00:55:30;;;;;;;13.47;10.33;;;4.6;99.9;;;;;;;;;
2021/03/19 00:55:40;;;;;;;13.8;10.9;;;4.7;99.9;;;;;;;;;
2021/03/19 00:55:56;;;;;;;13.8;10.9;;;4.7;99.9;;;;;;;;;
2021/03/19 00:56:02;;;;;;;13.8;10.9;;;4.7;99.9;;;;;;;;;
2021/03/19 00:56:06;;;;;;;13.8;10.9;;;4.7;99.9;;;;;;;;;
2021/03/19 00:56:16;;;;;;;13.8;10.9;;;4.7;99.9;;;;;;;;;
2021/03/19 00:56:26;;;;;;;13.8;10.9;;;4.7;99.9;;;;;;;;;
2021/03/19 00:56:42;;;;;;;11.3;10.13;;;4.6;99.9;;;;;;;;;
2021/03/19 00:56:57;;;;;;;11.3;10.13;;;4.6;99.9;;;;;;;;;
2021/03/19 00:57:02;;;;;;;11.3;10.13;;;4.6;99.9;;;;;;;;;
2021/03/19 00:57:07;;;;;;;11.3;10.13;;;4.6;99.9;;;;;;;;;
2021/03/19 00:57:17;;;;;;;11.3;10.13;;;4.6;99.9;;;;;;;;;
2021/03/19 00:57:28;;;;;;;11.3;10.13;;;4.6;99.9;;;;;;;;;
2021/03/19 00:57:43;;;;;;;13.47;10.67;;;4.6;99.9;;;;;;;;;
2021/03/19 00:57:53;;;;;;;13.47;10.67;;;4.6;99.9;;;;;;;;;
2021/03/19 00:58:02;;;;;;;13.47;10.67;;;4.6;99.9;;;;;;;;;
2021/03/19 00:58:09;;;;;;;13.47;10.67;;;4.6;99.9;;;;;;;;;
2021/03/19 00:58:14;;;;;;;13.47;10.67;;;4.6;99.9;;;;;;;;;
2021/03/19 00:58:29;;;;;;;13.47;10.67;;;4.6;99.9;;;;;;;;;
2021/03/19 00:58:40;;;;;;;12.37;10.87;;;4.6;99.9;;;;;;;;;
2021/03/19 00:58:55;;;;;;;12.37;10.87;;;4.6;99.9;;;;;;;;;
2021/03/19 00:59:05;;;;;;;12.37;10.87;;;4.6;99.9;;;;;;;;;
2021/03/19 00:59:10;;;;;;;12.37;10.87;;;4.6;99.9;;;;;;;;;
2021/03/19 00:59:15;;;;;;;12.37;10.87;;;4.6;99.9;;;;;;;;;
2021/03/19 00:59:30;;;;;;;12.37;10.87;;;4.6;99.9;;;;;;;;;
2021/03/19 00:59:41;;;;;;;13.93;10.43;;;4.6;99.9;;;;;;;;;
2021/03/19 00:59:56;;;;;;;13.93;10.43;;;4.6;99.9;;;;;;;;;
2021/03/19 01:00:02;;;;;;;13.93;10.43;;;4.6;99.9;;;;;;;;;
2021/03/19 01:00:06;;;;;;;13.93;10.43;;;4.6;99.9;;;;;;;;;
2021/03/19 01:00:17;;;;;;;13.93;10.43;;;4.6;99.9;;;;;;;;;
2021/03/19 01:00:27;;;;;;;13.93;10.43;;;4.6;99.9;;;;;;;;;
2021/03/19 01:00:42;;;;;;;12.17;10.87;;;4.5;99.9;;;;;;;;;
2021/03/19 01:00:52;;;;;;;12.17;10.87;;;4.5;99.9;;;;;;;;;
2021/03/19 01:01:01;;;;;;;12.17;10.87;;;4.5;99.9;;;;;;;;;
2021/03/19 01:01:08;;;;;;;12.17;10.87;;;4.5;99.9;;;;;;;;;
2021/03/19 01:01:18;;;;;;;12.17;10.87;;;4.5;99.9;;;;;;;;;
2021/03/19 01:01:28;;;;;;;12.17;10.87;;;4.5;99.9;;;;;;;;;
2021/03/19 01:01:44;;;;;;;13.43;10.87;;;4.5;99.9;;;;;;;;;
2021/03/19 01:01:54;;;;;;;13.43;10.87;;;4.5;99.9;;;;;;;;;
2021/03/19 01:02:02;;;;;;;13.43;10.87;;;4.5;99.9;;;;;;;;;
2021/03/19 01:02:09;;;;;;;13.43;10.87;;;4.5;99.9;;;;;;;;;
2021/03/19 01:02:14;;;;;;;13.43;10.87;;;4.5;99.9;;;;;;;;;
2021/03/19 01:02:30;;;;;;;13.43;10.87;;;4.5;99.9;;;;;;;;;
2021/03/19 01:02:40;;;;;;;16.63;11.63;;;4.6;99.9;;;;;;;;;
2021/03/19 01:02:55;;;;;;;16.63;11.63;;;4.6;99.9;;;;;;;;;
2021/03/19 01:03:03;;;;;;;16.63;11.63;;;4.6;99.9;;;;;;;;;
2021/03/19 01:03:06;;;;;;;16.63;11.63;;;4.6;99.9;;;;;;;;;
2021/03/19 01:03:16;;;;;;;16.63;11.63;;;4.6;99.9;;;;;;;;;
2021/03/19 01:03:31;;;;;;;16.63;11.63;;;4.6;99.9;;;;;;;;;
2021/03/19 01:03:41;;;;;;;12.77;10.47;;;4.6;99.9;;;;;;;;;
2021/03/19 01:03:57;;;;;;;12.77;10.47;;;4.6;99.9;;;;;;;;;
2021/03/19 01:04:03;;;;;;;12.77;10.47;;;4.6;99.9;;;;;;;;;
2021/03/19 01:04:07;;;;;;;12.77;10.47;;;4.6;99.9;;;;;;;;;
2021/03/19 01:04:12;;;;;;;12.77;10.47;;;4.6;99.9;;;;;;;;;
2021/03/19 01:04:27;;;;;;;12.77;10.47;;;4.6;99.9;;;;;;;;;
2021/03/19 01:04:43;;;;;;;12.73;10.07;;;4.6;99.9;;;;;;;;;
2021/03/19 01:04:53;;;;;;;12.73;10.07;;;4.6;99.9;;;;;;;;;
2021/03/19 01:05:02;;;;;;;12.73;10.07;;;4.6;99.9;;;;;;;;;
2021/03/19 01:05:08;;;;;;;12.73;10.07;;;4.6;99.9;;;;;;;;;
2021/03/19 01:05:14;;;;;;;12.73;10.07;;;4.6;99.9;;;;;;;;;
2021/03/19 01:05:29;;;;;;;12.73;10.07;;;4.6;99.9;;;;;;;;;
2021/03/19 01:05:44;;;;;;;13.97;10.93;;;4.6;99.9;;;;;;;;;
2021/03/19 01:05:54;;;;;;;13.97;10.93;;;4.6;99.9;;;;;;;;;
2021/03/19 01:06:01;;;;;;;13.97;10.93;;;4.6;99.9;;;;;;;;;
2021/03/19 01:06:10;;;;;;;13.97;10.93;;;4.6;99.9;;;;;;;;;
2021/03/19 01:06:15;;;;;;;13.97;10.93;;;4.6;99.9;;;;;;;;;
2021/03/19 01:06:25;;;;;;;13.97;10.93;;;4.6;99.9;;;;;;;;;
2021/03/19 01:06:41;;;;;;;14.53;10.47;;;4.6;99.9;;;;;;;;;
2021/03/19 01:06:56;;;;;;;14.53;10.47;;;4.6;99.9;;;;;;;;;
2021/03/19 01:07:02;;;;;;;14.53;10.47;;;4.6;99.9;;;;;;;;;
2021/03/19 01:07:06;;;;;;;14.53;10.47;;;4.6;99.9;;;;;;;;;
2021/03/19 01:07:16;;;;;;;14.53;10.47;;;4.6;99.9;;;;;;;;;
2021/03/19 01:07:27;;;;;;;14.53;10.47;;;4.6;99.9;;;;;;;;;
2021/03/19 01:07:42;;;;;;;13.1;11.23;;;4.6;99.9;;;;;;;;;
2021/03/19 01:07:57;;;;;;;13.1;11.23;;;4.6;99.9;;;;;;;;;
2021/03/19 01:08:02;;;;;;;13.1;11.23;;;4.6;99.9;;;;;;;;;
2021/03/19 01:08:08;;;;;;;13.1;11.23;;;4.6;99.9;;;;;;;;;
2021/03/19 01:08:13;;;;;;;13.1;11.23;;;4.6;99.9;;;;;;;;;
2021/03/19 01:08:28;;;;;;;13.1;11.23;;;4.6;99.9;;;;;;;;;
2021/03/19 01:08:38;;;;;;;11.6;10.3;;;4.6;99.9;;;;;;;;;
2021/03/19 01:08:54;;;;;;;11.6;10.3;;;4.6;99.9;;;;;;;;;
2021/03/19 01:09:02;;;;;;;11.6;10.3;;;4.6;99.9;;;;;;;;;
2021/03/19 01:09:09;;;;;;;11.6;10.3;;;4.6;99.9;;;;;;;;;
2021/03/19 01:09:14;;;;;;;11.6;10.3;;;4.6;99.9;;;;;;;;;
2021/03/19 01:09:30;;;;;;;11.6;10.3;;;4.6;99.9;;;;;;;;;
2021/03/19 01:09:40;;;;;;;12.2;10.93;;;4.6;99.9;;;;;;;;;
2021/03/19 01:09:55;;;;;;;12.2;10.93;;;4.6;99.9;;;;;;;;;
2021/03/19 01:10:02;;;;;;;12.2;10.93;;;4.6;99.9;;;;;;;;;
2021/03/19 01:10:10;;;;;;;12.2;10.93;;;4.6;99.9;;;;;;;;;
2021/03/19 01:10:16;;;;;;;12.2;10.93;;;4.6;99.9;;;;;;;;;
2021/03/19 01:10:26;;;;;;;12.2;10.93;;;4.6;99.9;;;;;;;;;
2021/03/19 01:10:41;;;;;;;13.8;10.93;;;4.7;99.9;;;;;;;;;
2021/03/19 01:10:52;;;;;;;13.8;10.93;;;4.7;99.9;;;;;;;;;
2021/03/19 01:11:01;;;;;;;13.8;10.93;;;4.7;99.9;;;;;;;;;
2021/03/19 01:11:07;;;;;;;13.8;10.93;;;4.7;99.9;;;;;;;;;
2021/03/19 01:11:12;;;;;;;13.8;10.93;;;4.7;99.9;;;;;;;;;
2021/03/19 01:11:27;;;;;;;13.8;10.93;;;4.7;99.9;;;;;;;;;
2021/03/19 01:11:43;;;;;;;12.53;11.07;;;4.7;99.9;;;;;;;;;
2021/03/19 01:11:53;;;;;;;12.53;11.07;;;4.7;99.9;;;;;;;;;
2021/03/19 01:12:02;;;;;;;12.53;11.07;;;4.7;99.9;;;;;;;;;
2021/03/19 01:12:08;;;;;;;12.53;11.07;;;4.7;99.9;;;;;;;;;
2021/03/19 01:12:18;;;;;;;12.53;11.07;;;4.7;99.9;;;;;;;;;
2021/03/19 01:12:39;;;;;;;12.77;11.27;;;4.7;99.9;;;;;;;;;
2021/03/19 01:12:39;;;;;;;12.77;11.27;;;4.7;99.9;;;;;;;;;
2021/03/19 01:12:54;;;;;;;12.77;11.27;;;4.7;99.9;;;;;;;;;
2021/03/19 01:13:02;;;;;;;12.77;11.27;;;4.7;99.9;;;;;;;;;
2021/03/19 01:13:05;;;;;;;12.77;11.27;;;4.7;99.9;;;;;;;;;
2021/03/19 01:13:15;;;;;;;12.77;11.27;;;4.7;99.9;;;;;;;;;
2021/03/19 01:13:25;;;;;;;12.77;11.27;;;4.7;99.9;;;;;;;;;
2021/03/19 01:13:40;;;;;;;16.73;10.87;;;4.7;99.9;;;;;;;;;
2021/03/19 01:13:56;;;;;;;16.73;10.87;;;4.7;99.9;;;;;;;;;
2021/03/19 01:14:01;;;;;;;16.73;10.87;;;4.7;99.9;;;;;;;;;
2021/03/19 01:14:06;;;;;;;16.73;10.87;;;4.7;99.9;;;;;;;;;
2021/03/19 01:14:16;;;;;;;16.73;10.87;;;4.7;99.9;;;;;;;;;
2021/03/19 01:14:32;;;;;;;16.73;10.87;;;4.7;99.9;;;;;;;;;
2021/03/19 01:14:52;;;;;;;12.97;11.23;;;4.7;99.9;;;;;;;;;
2021/03/19 01:14:52;;;;;;;12.97;11.23;;;4.7;99.9;;;;;;;;;
2021/03/19 01:15:02;;;;;;;12.97;11.23;;;4.7;99.9;;;;;;;;;
2021/03/19 01:15:08;;;;;;;12.97;11.23;;;4.7;99.9;;;;;;;;;
2021/03/19 01:15:13;;;;;;;12.97;11.23;;;4.7;99.9;;;;;;;;;
2021/03/19 01:15:28;;;;;;;12.97;11.23;;;4.7;99.9;;;;;;;;;
2021/03/19 01:15:38;;;;;;;12.97;11.23;;;4.7;99.9;;;;;;;;;
2021/03/19 01:15:54;;;;;;;12.2;10.4;;;4.7;99.9;;;;;;;;;